createdAt,value
2023-02-03T00:00:20.782Z,-4.67
2023-02-03T00:02:50.576Z,-4.61
2023-02-03T00:05:18.979Z,-4.59
2023-02-03T00:07:47.247Z,-4.55
2023-02-03T00:10:16.200Z,-4.55
2023-02-03T00:12:44.467Z,-4.53
2023-02-03T00:15:12.700Z,-4.53
2023-02-03T00:17:41.728Z,-4.55
2023-02-03T00:20:13.423Z,-4.49
2023-02-03T00:22:41.681Z,-4.47
2023-02-03T00:25:10.255Z,-4.45
2023-02-03T00:27:38.460Z,-4.45
2023-02-03T00:30:07.480Z,-4.49
2023-02-03T00:32:36.014Z,-4.47
2023-02-03T00:35:04.493Z,-4.49
2023-02-03T00:37:34.210Z,-4.53
2023-02-03T00:40:02.804Z,-4.52
2023-02-03T00:42:31.016Z,-4.52
2023-02-03T00:44:59.206Z,-4.57
2023-02-03T00:47:28.389Z,-4.64
2023-02-03T00:49:57.032Z,-4.62
2023-02-03T00:52:25.279Z,-4.66
2023-02-03T00:54:55.008Z,-4.68
2023-02-03T00:57:23.236Z,-4.62
2023-02-03T00:59:51.420Z,-4.61
2023-02-03T01:02:19.668Z,-4.59
2023-02-03T01:04:48.341Z,-4.62
2023-02-03T01:07:16.941Z,-4.58
2023-02-03T01:09:45.301Z,-4.58
2023-02-03T01:12:15.507Z,-4.56
2023-02-03T01:14:43.831Z,-4.62
2023-02-03T01:17:13.822Z,-4.53
2023-02-03T01:19:42.101Z,-4.51
2023-02-03T01:22:10.343Z,-4.49
2023-02-03T01:24:38.871Z,-4.48
2023-02-03T01:27:07.513Z,-4.45
2023-02-03T01:29:37.285Z,-4.43
2023-02-03T01:32:05.696Z,-4.40
2023-02-03T01:34:33.961Z,-4.37
2023-02-03T01:37:02.199Z,-4.37
2023-02-03T01:39:30.452Z,-4.38
2023-02-03T01:41:58.945Z,-4.38
2023-02-03T01:44:41.297Z,-4.37
2023-02-03T01:47:23.563Z,-4.36
2023-02-03T01:49:57.016Z,-4.34
2023-02-03T01:52:26.154Z,-4.35
2023-02-03T01:54:58.063Z,-4.34
2023-02-03T01:57:31.039Z,-4.24
2023-02-03T02:00:01.778Z,-4.24
2023-02-03T02:02:30.886Z,-4.23
2023-02-03T02:05:06.153Z,-4.22
2023-02-03T02:07:36.639Z,-4.19
2023-02-03T02:10:07.531Z,-4.16
2023-02-03T02:12:35.744Z,-4.14
2023-02-03T02:15:06.412Z,-4.12
2023-02-03T02:18:07.849Z,-4.13
2023-02-03T02:21:18.192Z,-4.12
2023-02-03T02:24:07.580Z,-4.14
2023-02-03T02:26:58.696Z,-4.13
2023-02-03T02:30:07.803Z,-4.15
2023-02-03T02:32:47.971Z,-4.16
2023-02-03T02:35:24.907Z,-4.15
2023-02-03T02:38:01.180Z,-4.16
2023-02-03T02:40:37.129Z,-4.17
2023-02-03T02:43:11.196Z,-4.18
2023-02-03T02:45:46.155Z,-4.18
2023-02-03T02:48:21.546Z,-4.19
2023-02-03T02:50:53.216Z,-4.15
2023-02-03T02:53:26.063Z,-4.18
2023-02-03T02:55:56.813Z,-4.19
2023-02-03T02:58:26.134Z,-4.21
2023-02-03T03:00:54.374Z,-4.20
2023-02-03T03:03:25.592Z,-4.19
2023-02-03T03:05:56.894Z,-4.20
2023-02-03T03:08:31.189Z,-4.17
2023-02-03T03:11:01.669Z,-4.18
2023-02-03T03:13:33.869Z,-4.18
2023-02-03T03:16:07.793Z,-4.20
2023-02-03T03:18:44.463Z,-4.20
2023-02-03T03:21:17.861Z,-4.24
2023-02-03T03:23:52.316Z,-4.21
2023-02-03T03:26:28.016Z,-4.22
2023-02-03T03:29:04.843Z,-4.23
2023-02-03T03:31:33.340Z,-4.23
2023-02-03T03:34:03.496Z,-4.24
2023-02-03T03:36:34.745Z,-4.24
2023-02-03T03:39:06.778Z,-4.25
2023-02-03T03:41:45.855Z,-4.25
2023-02-03T03:44:18.245Z,-4.24
2023-02-03T03:46:51.608Z,-4.23
2023-02-03T03:49:27.074Z,-4.21
2023-02-03T03:51:59.757Z,-4.16
2023-02-03T03:54:32.552Z,-4.09
2023-02-03T03:57:06.932Z,-4.06
2023-02-03T03:59:42.134Z,-4.04
2023-02-03T04:02:10.615Z,-4.02
2023-02-03T04:04:41.631Z,-4.03
2023-02-03T04:07:09.956Z,-4.01
2023-02-03T04:09:40.410Z,-4.01
2023-02-03T04:12:15.044Z,-4.02
2023-02-03T04:14:43.292Z,-4.00
2023-02-03T04:17:11.497Z,-3.97
2023-02-03T04:19:41.230Z,-3.98
2023-02-03T04:22:09.558Z,-3.92
2023-02-03T04:24:38.620Z,-3.89
2023-02-03T04:27:06.942Z,-3.86
2023-02-03T04:29:35.567Z,-3.86
2023-02-03T04:32:03.982Z,-3.82
2023-02-03T04:34:32.873Z,-3.80
2023-02-03T04:37:02.502Z,-3.80
2023-02-03T04:39:30.718Z,-3.80
2023-02-03T04:41:59.926Z,-3.79
2023-02-03T04:44:28.146Z,-3.78
2023-02-03T04:46:56.325Z,-3.75
2023-02-03T04:49:26.748Z,-3.74
2023-02-03T04:51:55.246Z,-3.73
2023-02-03T04:54:24.945Z,-3.72
2023-02-03T04:56:54.809Z,-3.71
2023-02-03T04:59:23.252Z,-3.69
2023-02-03T05:01:51.440Z,-3.65
2023-02-03T05:04:19.865Z,-3.69
2023-02-03T05:06:48.098Z,-3.64
2023-02-03T05:09:16.879Z,-3.64
2023-02-03T05:11:47.965Z,-3.64
2023-02-03T05:14:16.159Z,-3.63
2023-02-03T05:16:44.685Z,-3.61
2023-02-03T05:19:13.816Z,-3.58
2023-02-03T05:21:42.231Z,-3.55
2023-02-03T05:24:10.842Z,-3.53
2023-02-03T05:26:39.127Z,-3.54
2023-02-03T05:29:10.212Z,-3.53
2023-02-03T05:31:38.589Z,-3.56
2023-02-03T05:34:07.016Z,-3.55
2023-02-03T05:36:35.443Z,-3.49
2023-02-03T05:39:03.694Z,-3.50
2023-02-03T05:41:49.348Z,-3.46
2023-02-03T05:44:18.982Z,-3.44
2023-02-03T05:46:47.334Z,-3.42
2023-02-03T05:49:15.636Z,-3.41
2023-02-03T05:51:46.261Z,-3.42
2023-02-03T05:54:15.103Z,-3.42
2023-02-03T05:56:43.669Z,-3.42
2023-02-03T05:59:12.181Z,-3.46
2023-02-03T06:01:41.900Z,-3.45
2023-02-03T06:04:10.571Z,-3.43
2023-02-03T06:06:38.888Z,-3.44
2023-02-03T06:09:08.794Z,-3.46
2023-02-03T06:11:38.690Z,-3.47
2023-02-03T06:14:06.977Z,-3.46
2023-02-03T06:16:35.180Z,-3.43
2023-02-03T06:19:06.633Z,-3.42
2023-02-03T06:21:34.815Z,-3.41
2023-02-03T06:24:03.327Z,-3.38
2023-02-03T06:26:32.349Z,-3.35
2023-02-03T06:29:00.545Z,-3.34
2023-02-03T06:31:29.006Z,-3.31
2023-02-03T06:33:57.428Z,-3.28
2023-02-03T06:36:27.097Z,-3.26
2023-02-03T06:38:55.319Z,-3.24
2023-02-03T06:41:28.721Z,-3.23
2023-02-03T06:43:59.199Z,-3.20
2023-02-03T06:46:30.287Z,-3.17
2023-02-03T06:49:00.638Z,-3.14
2023-02-03T06:51:30.323Z,-3.10
2023-02-03T06:53:58.949Z,-3.12
2023-02-03T06:56:27.289Z,-3.07
2023-02-03T06:58:55.542Z,-3.04
2023-02-03T07:01:23.835Z,-3.04
2023-02-03T07:03:52.127Z,-3.03
2023-02-03T07:06:20.355Z,-3.01
2023-02-03T07:08:50.032Z,-2.96
2023-02-03T07:11:18.343Z,-2.91
2023-02-03T07:13:46.669Z,-2.86
2023-02-03T07:16:15.883Z,-2.81
2023-02-03T07:18:47.223Z,-2.78
2023-02-03T07:21:19.134Z,-2.76
2023-02-03T07:23:50.559Z,-2.72
2023-02-03T07:26:19.992Z,-2.71
2023-02-03T07:28:48.209Z,-2.71
2023-02-03T07:31:17.030Z,-2.70
2023-02-03T07:33:45.335Z,-2.70
2023-02-03T07:36:13.864Z,-2.64
2023-02-03T07:38:42.158Z,-2.62
2023-02-03T07:41:17.634Z,-2.61
2023-02-03T07:43:46.281Z,-2.59
2023-02-03T07:46:15.113Z,-2.57
2023-02-03T07:48:43.351Z,-2.57
2023-02-03T07:51:12.615Z,-2.55
2023-02-03T07:53:40.836Z,-2.54
2023-02-03T07:56:09.063Z,-2.50
2023-02-03T07:58:38.795Z,-2.47
2023-02-03T08:01:13.203Z,-2.42
2023-02-03T08:03:41.742Z,-2.40
2023-02-03T08:06:10.281Z,-2.34
2023-02-03T08:08:38.639Z,-2.32
2023-02-03T08:11:07.145Z,-2.31
2023-02-03T08:13:35.435Z,-2.29
2023-02-03T08:16:06.485Z,-2.27
2023-02-03T08:18:34.721Z,-2.21
2023-02-03T08:21:04.957Z,-2.22
2023-02-03T08:23:34.812Z,-2.21
2023-02-03T08:26:03.024Z,-2.20
2023-02-03T08:28:31.258Z,-2.17
2023-02-03T08:31:02.578Z,-2.16
2023-02-03T08:33:32.385Z,-2.17
2023-02-03T08:36:01.229Z,-2.10
2023-02-03T08:38:30.055Z,-2.11
2023-02-03T08:40:58.370Z,-2.11
2023-02-03T08:43:27.075Z,-2.08
2023-02-03T08:45:56.401Z,-2.02
2023-02-03T08:48:25.002Z,-2.00
2023-02-03T08:50:55.955Z,-1.96
2023-02-03T08:53:24.173Z,-1.93
2023-02-03T08:55:52.512Z,-1.90
2023-02-03T08:58:20.778Z,-1.89
2023-02-03T09:00:50.106Z,-1.89
2023-02-03T09:03:32.229Z,-1.85
2023-02-03T09:06:02.809Z,-1.88
2023-02-03T09:08:31.246Z,-1.90
2023-02-03T09:10:59.463Z,-1.89
2023-02-03T09:13:27.784Z,-1.84
2023-02-03T09:15:56.084Z,-1.78
2023-02-03T09:18:24.263Z,-1.73
2023-02-03T09:20:52.484Z,-1.65
2023-02-03T09:23:22.188Z,-1.60
2023-02-03T09:25:50.378Z,-1.58
2023-02-03T09:28:18.876Z,-1.50
2023-02-03T09:30:48.084Z,-1.44
2023-02-03T09:33:16.389Z,-1.40
2023-02-03T09:35:53.462Z,-1.36
2023-02-03T09:38:23.596Z,-1.29
2023-02-03T09:41:09.612Z,-1.27
2023-02-03T09:43:46.192Z,-1.25
2023-02-03T09:46:20.279Z,-1.18
2023-02-03T09:48:52.987Z,-1.17
2023-02-03T09:51:27.389Z,-1.12
2023-02-03T09:54:01.941Z,-1.05
2023-02-03T09:56:36.151Z,-1.00
2023-02-03T09:59:05.263Z,-0.94
2023-02-03T10:01:43.233Z,-0.90
2023-02-03T10:04:27.972Z,-0.87
2023-02-03T10:07:04.025Z,-0.84
2023-02-03T10:09:44.093Z,-0.80
2023-02-03T10:12:35.601Z,-0.79
2023-02-03T10:15:18.678Z,-0.80
2023-02-03T10:17:53.202Z,-0.78
2023-02-03T10:20:27.320Z,-0.70
2023-02-03T10:23:01.069Z,-0.62
2023-02-03T10:25:35.955Z,-0.57
2023-02-03T10:28:15.250Z,-0.55
2023-02-03T10:30:48.473Z,-0.49
2023-02-03T10:33:18.765Z,-0.51
2023-02-03T10:35:52.040Z,-0.48
2023-02-03T10:38:36.940Z,-0.41
2023-02-03T10:41:06.911Z,-0.43
2023-02-03T10:43:52.816Z,-0.40
2023-02-03T10:46:23.345Z,-0.34
2023-02-03T10:48:51.931Z,-0.27
2023-02-03T10:51:23.961Z,-0.25
2023-02-03T10:53:53.717Z,-0.24
2023-02-03T10:56:26.984Z,-0.23
2023-02-03T10:58:56.764Z,-0.21
2023-02-03T11:01:28.624Z,-0.19
2023-02-03T11:04:00.341Z,-0.23
2023-02-03T11:06:29.686Z,-0.15
2023-02-03T11:08:58.243Z,-0.09
2023-02-03T11:11:33.084Z,0.00
2023-02-03T11:14:18.096Z,0.06
2023-02-03T11:16:48.440Z,0.18
2023-02-03T11:19:19.765Z,0.20
2023-02-03T11:21:51.732Z,0.25
2023-02-03T11:24:22.578Z,0.29
2023-02-03T11:26:58.650Z,0.28
2023-02-03T11:29:29.519Z,0.25
2023-02-03T11:32:00.168Z,0.25
2023-02-03T11:34:32.458Z,0.23
2023-02-03T11:37:27.686Z,0.21
2023-02-03T11:39:58.211Z,0.26
2023-02-03T11:42:27.899Z,0.37
2023-02-03T11:45:15.191Z,0.45
2023-02-03T11:47:48.364Z,0.49
2023-02-03T11:50:29.821Z,0.55
2023-02-03T11:53:16.198Z,0.56
2023-02-03T11:55:57.812Z,0.54
2023-02-03T11:59:03.646Z,0.54
2023-02-03T12:02:02.254Z,0.53
2023-02-03T12:04:46.682Z,0.50
2023-02-03T12:07:35.716Z,0.52
2023-02-03T12:10:14.665Z,0.57
2023-02-03T12:12:54.141Z,0.62
2023-02-03T12:15:55.440Z,0.66
2023-02-03T12:18:40.503Z,0.72
2023-02-03T12:21:24.426Z,0.74
2023-02-03T12:24:00.331Z,0.74
2023-02-03T12:26:40.502Z,0.70
2023-02-03T12:29:14.638Z,0.73
2023-02-03T12:32:02.301Z,0.70
2023-02-03T12:34:35.640Z,0.68
2023-02-03T12:37:07.680Z,0.69
2023-02-03T12:39:50.597Z,0.67
2023-02-03T12:42:22.245Z,0.66
2023-02-03T12:44:55.448Z,0.69
2023-02-03T12:47:32.015Z,0.71
2023-02-03T12:50:05.731Z,0.74
2023-02-03T12:52:40.002Z,0.74
2023-02-03T12:55:21.843Z,0.76
2023-02-03T12:57:57.735Z,0.73
2023-02-03T13:00:36.954Z,0.76
2023-02-03T13:03:16.770Z,0.75
2023-02-03T13:05:51.680Z,0.79
2023-02-03T13:08:27.887Z,0.85
2023-02-03T13:11:04.138Z,0.89
2023-02-03T13:13:37.341Z,0.90
2023-02-03T13:16:14.617Z,0.91
2023-02-03T13:18:48.934Z,0.95
2023-02-03T13:21:19.166Z,0.93
2023-02-03T13:23:48.202Z,0.96
2023-02-03T13:26:39.068Z,0.96
2023-02-03T13:29:43.121Z,0.97
2023-02-03T13:32:26.320Z,0.94
2023-02-03T13:35:32.274Z,0.94
2023-02-03T13:38:27.286Z,0.94
2023-02-03T13:41:06.183Z,0.93
2023-02-03T13:43:39.137Z,0.92
2023-02-03T13:46:19.826Z,0.89
2023-02-03T13:48:48.787Z,0.90
2023-02-03T13:51:26.463Z,0.87
2023-02-03T13:54:08.135Z,0.83
2023-02-03T13:56:37.129Z,0.88
2023-02-03T13:59:32.044Z,0.91
2023-02-03T14:02:34.870Z,0.89
2023-02-03T14:05:04.353Z,0.85
2023-02-03T14:07:38.302Z,0.83
2023-02-03T14:10:23.507Z,0.80
2023-02-03T14:13:00.257Z,0.79
2023-02-03T14:15:35.455Z,0.81
2023-02-03T14:18:32.720Z,0.80
2023-02-03T14:21:20.915Z,0.77
2023-02-03T14:23:56.831Z,0.74
2023-02-03T14:26:40.879Z,0.71
2023-02-03T14:29:12.075Z,0.69
2023-02-03T14:32:03.374Z,0.70
2023-02-03T14:34:38.494Z,0.66
2023-02-03T14:37:22.601Z,0.64
2023-02-03T14:40:20.365Z,0.62
2023-02-03T14:43:24.339Z,0.58
2023-02-03T14:46:22.167Z,0.59
2023-02-03T14:49:09.718Z,0.58
2023-02-03T14:51:58.538Z,0.59
2023-02-03T14:54:42.675Z,0.58
2023-02-03T14:57:26.884Z,0.49
2023-02-03T15:00:02.226Z,0.44
2023-02-03T15:02:32.243Z,0.36
2023-02-03T15:05:40.410Z,0.33
2023-02-03T15:08:35.831Z,0.27
2023-02-03T15:11:28.787Z,0.25
2023-02-03T15:13:58.892Z,0.19
2023-02-03T15:16:28.601Z,0.17
2023-02-03T15:18:59.499Z,0.13
2023-02-03T15:21:28.223Z,0.07
2023-02-03T15:23:56.619Z,0.00
2023-02-03T15:26:27.404Z,0.01
2023-02-03T15:28:57.030Z,-0.01
2023-02-03T15:31:34.031Z,-0.03
2023-02-03T15:34:08.915Z,-0.10
2023-02-03T15:36:44.318Z,-0.14
2023-02-03T15:39:23.552Z,-0.21
2023-02-03T15:41:56.516Z,-0.23
2023-02-03T15:44:32.413Z,-0.25
2023-02-03T15:47:05.275Z,-0.29
2023-02-03T15:49:41.810Z,-0.32
2023-02-03T15:52:15.652Z,-0.36
2023-02-03T15:54:53.419Z,-0.37
2023-02-03T15:57:28.306Z,-0.37
2023-02-03T15:59:58.673Z,-0.38
2023-02-03T16:02:33.075Z,-0.40
2023-02-03T16:05:05.636Z,-0.44
2023-02-03T16:07:33.940Z,-0.46
2023-02-03T16:10:02.591Z,-0.49
2023-02-03T16:12:32.815Z,-0.51
2023-02-03T16:15:03.398Z,-0.52
2023-02-03T16:17:35.760Z,-0.49
2023-02-03T16:20:24.472Z,-0.48
2023-02-03T16:23:20.882Z,-0.42
2023-02-03T16:26:04.762Z,-0.41
2023-02-03T16:28:50.487Z,-0.38
2023-02-03T16:31:37.783Z,-0.39
2023-02-03T16:34:32.622Z,-0.40
2023-02-03T16:37:19.624Z,-0.40
2023-02-03T16:40:05.111Z,-0.38
2023-02-03T16:42:58.204Z,-0.36
2023-02-03T16:45:44.532Z,-0.40
2023-02-03T16:48:33.116Z,-0.36
2023-02-03T16:51:06.886Z,-0.35
2023-02-03T16:53:35.313Z,-0.37
2023-02-03T16:56:07.014Z,-0.42
2023-02-03T16:58:35.657Z,-0.48
2023-02-03T17:01:05.861Z,-0.41
2023-02-03T17:03:38.355Z,-0.40
2023-02-03T17:06:10.280Z,-0.39
2023-02-03T17:08:41.430Z,-0.40
2023-02-03T17:11:12.871Z,-0.38
2023-02-03T17:13:41.097Z,-0.41
2023-02-03T17:16:12.136Z,-0.43
2023-02-03T17:18:41.115Z,-0.45
2023-02-03T17:21:13.773Z,-0.44
2023-02-03T17:23:42.293Z,-0.51
2023-02-03T17:26:10.712Z,-0.52
2023-02-03T17:28:40.841Z,-0.49
2023-02-03T17:31:09.381Z,-0.53
2023-02-03T17:33:37.662Z,-0.52
2023-02-03T17:36:08.152Z,-0.56
2023-02-03T17:55:23.503Z,-0.57
2023-02-03T17:57:51.918Z,-0.60
2023-02-03T18:00:22.150Z,-0.58
2023-02-03T18:02:51.959Z,-0.55
2023-02-03T18:05:21.016Z,-0.54
2023-02-03T18:07:49.373Z,-0.54
2023-02-03T18:10:18.117Z,-0.54
2023-02-03T18:12:47.894Z,-0.56
2023-02-03T18:15:16.740Z,-0.54
2023-02-03T18:17:45.020Z,-0.52
2023-02-03T18:20:14.450Z,-0.51
2023-02-03T18:22:42.848Z,-0.52
2023-02-03T18:25:11.718Z,-0.50
2023-02-03T18:27:40.039Z,-0.48
2023-02-03T18:30:12.110Z,-0.47
2023-02-03T18:32:40.447Z,-0.48
2023-02-03T18:35:13.140Z,-0.52
2023-02-03T18:37:41.410Z,-0.53
2023-02-03T18:40:10.526Z,-0.47
2023-02-03T18:42:38.908Z,-0.48
2023-02-03T18:45:09.149Z,-0.49
2023-02-03T18:47:39.229Z,-0.46
2023-02-03T18:50:08.177Z,-0.45
2023-02-03T18:52:37.356Z,-0.46
2023-02-03T18:55:05.812Z,-0.48
2023-02-03T18:57:34.030Z,-0.49
2023-02-03T19:00:02.604Z,-0.53
2023-02-03T19:02:30.812Z,-0.53
2023-02-03T19:05:00.646Z,-0.59
2023-02-03T19:07:28.974Z,-0.58
2023-02-03T19:09:57.236Z,-0.60
2023-02-03T19:12:26.455Z,-0.65
2023-02-03T19:14:56.209Z,-0.68
2023-02-03T19:17:24.637Z,-0.72
2023-02-03T19:19:54.682Z,-0.75
2023-02-03T19:22:24.872Z,-0.77
2023-02-03T19:24:53.062Z,-0.75
2023-02-03T19:27:21.457Z,-0.76
2023-02-03T19:29:50.294Z,-0.77
2023-02-03T19:32:18.678Z,-0.83
2023-02-03T19:34:46.944Z,-0.84
2023-02-03T19:37:15.240Z,-0.87
2023-02-03T19:39:48.013Z,-0.86
2023-02-03T19:42:16.247Z,-0.90
2023-02-03T19:44:51.512Z,-0.89
2023-02-03T19:47:20.709Z,-0.87
2023-02-03T19:49:52.509Z,-0.90
2023-02-03T19:52:22.662Z,-0.89
2023-02-03T19:54:54.044Z,-0.89
2023-02-03T19:57:22.365Z,-0.93
2023-02-03T19:59:54.565Z,-0.95
2023-02-03T20:02:22.918Z,-0.97
2023-02-03T20:04:51.278Z,-1.01
2023-02-03T20:07:23.340Z,-1.01
2023-02-03T20:09:53.022Z,-1.07
2023-02-03T20:12:22.430Z,-1.15
2023-02-03T20:14:51.341Z,-1.22
2023-02-03T20:17:19.576Z,-1.26
2023-02-03T20:19:47.798Z,-1.36
2023-02-03T20:22:16.137Z,-1.45
2023-02-03T20:24:44.437Z,-1.53
2023-02-03T20:27:14.193Z,-1.54
2023-02-03T20:29:43.433Z,-1.62
2023-02-03T20:32:11.979Z,-1.71
2023-02-03T20:34:40.327Z,-1.74
2023-02-03T20:37:08.668Z,-1.74
2023-02-03T20:39:36.902Z,-1.80
2023-02-03T20:42:14.777Z,-1.82
2023-02-03T20:44:44.698Z,-1.87
2023-02-03T20:47:13.654Z,-1.89
2023-02-03T20:49:42.848Z,-1.94
2023-02-03T20:52:14.861Z,-1.97
2023-02-03T20:54:43.091Z,-1.97
2023-02-03T20:57:14.871Z,-1.98
2023-02-03T20:59:45.702Z,-1.99
2023-02-03T21:02:25.642Z,-1.99
2023-02-03T21:04:58.762Z,-2.01
2023-02-03T21:07:30.095Z,-2.03
2023-02-03T21:10:00.011Z,-2.02
2023-02-03T21:12:29.613Z,-2.05
2023-02-03T21:14:59.377Z,-2.07
2023-02-03T21:17:28.483Z,-2.13
2023-02-03T21:19:56.697Z,-2.11
2023-02-03T21:22:26.818Z,-2.16
2023-02-03T21:24:57.105Z,-2.22
2023-02-03T21:27:28.696Z,-2.30
2023-02-03T21:29:59.958Z,-2.39
2023-02-03T21:32:37.502Z,-2.38
2023-02-03T21:35:24.051Z,-2.41
2023-02-03T21:37:55.977Z,-2.44
2023-02-03T21:40:29.523Z,-2.46
2023-02-03T21:42:58.780Z,-2.47
2023-02-03T21:45:35.631Z,-2.47
2023-02-03T21:48:32.174Z,-2.47
2023-02-03T21:51:05.635Z,-2.40
2023-02-03T21:53:36.195Z,-2.33
2023-02-03T21:56:18.062Z,-2.28
2023-02-03T21:58:48.689Z,-2.21
2023-02-03T22:01:33.579Z,-2.13
2023-02-03T22:04:02.459Z,-2.06
2023-02-03T22:06:39.845Z,-1.97
2023-02-03T22:09:08.372Z,-1.89
2023-02-03T22:11:36.555Z,-1.84
2023-02-03T22:14:04.789Z,-1.81
2023-02-03T22:16:34.692Z,-1.77
2023-02-03T22:19:03.070Z,-1.74
2023-02-03T22:21:31.448Z,-1.73
2023-02-03T22:23:59.674Z,-1.68
2023-02-03T22:26:28.104Z,-1.63
2023-02-03T22:28:56.343Z,-1.64
2023-02-03T22:31:24.880Z,-1.66
2023-02-03T22:33:54.635Z,-1.60
2023-02-03T22:36:23.719Z,-1.61
2023-02-03T22:38:52.625Z,-1.61
2023-02-03T22:41:21.807Z,-1.59
2023-02-03T22:43:50.036Z,-1.56
2023-02-03T22:46:18.479Z,-1.50
2023-02-03T22:48:47.090Z,-1.47
2023-02-03T22:51:18.078Z,-1.43
2023-02-03T22:53:46.365Z,-1.42
2023-02-03T22:56:14.709Z,-1.41
2023-02-03T22:58:43.195Z,-1.42
2023-02-03T23:01:11.413Z,-1.45
2023-02-03T23:03:39.645Z,-1.49
2023-02-03T23:06:08.277Z,-1.55
2023-02-03T23:08:38.042Z,-1.59
2023-02-03T23:11:06.535Z,-1.57
2023-02-03T23:13:34.799Z,-1.58
2023-02-03T23:16:03.100Z,-1.54
2023-02-03T23:18:31.348Z,-1.51
2023-02-03T23:20:59.524Z,-1.54
2023-02-03T23:23:27.928Z,-1.57
2023-02-03T23:25:57.521Z,-1.58
2023-02-03T23:28:25.750Z,-1.57
2023-02-03T23:30:53.997Z,-1.55
2023-02-03T23:33:22.486Z,-1.56
2023-02-03T23:35:50.793Z,-1.62
2023-02-03T23:38:19.448Z,-1.62
2023-02-03T23:40:47.957Z,-1.66
2023-02-03T23:43:17.862Z,-1.74
2023-02-03T23:45:46.099Z,-1.66
2023-02-03T23:48:14.578Z,-1.67
2023-02-03T23:50:43.876Z,-1.69
2023-02-03T23:53:12.344Z,-1.69
2023-02-03T23:55:40.560Z,-1.70
2023-02-03T23:58:09.116Z,-1.73
